Time;durP1;ratioP1;P1;durP2;ratioP2;P2;SDS_P1;SDS_P2;PMS_P1;PMS_P2;Temp;Humidity;BMP_temperature;BMP_pressure;BME280_temperature;BME280_humidity;BME280_pressure;Samples;Min_cycle;Max_cycle;Signal;HPM_P1;HPM_P2
2022/09/29 00:00:11;;;;;;;3.75;1.55;;;;;;;11.82;75.67;97989.88;4901699;29;21200;-79
2022/09/29 00:02:37;;;;;;;9.30;3.00;;;;;;;11.83;75.63;97983.66;4902672;29;20305;-78
2022/09/29 00:05:03;;;;;;;2.97;2.30;;;;;;;11.82;75.61;97981.16;4902976;29;20234;-78
2022/09/29 00:07:28;;;;;;;4.78;2.60;;;;;;;11.81;75.74;97982.97;4903523;29;20599;-78
2022/09/29 00:09:54;;;;;;;5.03;2.60;;;;;;;11.83;75.83;97981.03;4899877;29;20228;-78
2022/09/29 00:12:19;;;;;;;4.60;2.90;;;;;;;11.85;75.86;97988.75;4900878;29;20754;-78
2022/09/29 00:14:45;;;;;;;4.13;1.73;;;;;;;11.82;75.73;97989.06;4898264;29;20867;-78
2022/09/29 00:17:10;;;;;;;1.80;1.70;;;;;;;11.77;75.96;97986.84;4900051;29;20507;-79
2022/09/29 00:19:36;;;;;;;3.80;2.00;;;;;;;11.71;76.06;97983.00;4899696;29;20218;-78
2022/09/29 00:22:01;;;;;;;3.63;2.10;;;;;;;11.69;76.32;97990.22;4897847;29;20667;-78
2022/09/29 00:24:27;;;;;;;4.07;1.90;;;;;;;11.67;76.25;97979.00;4903004;29;20230;-78
2022/09/29 00:26:53;;;;;;;1.83;1.63;;;;;;;11.71;76.34;97982.16;4906000;29;20221;-79
2022/09/29 00:29:18;;;;;;;3.50;1.97;;;;;;;11.71;76.47;97980.38;4921105;29;20572;-78
2022/09/29 00:31:44;;;;;;;2.57;1.90;;;;;;;11.71;76.33;97976.91;4903957;29;20209;-78
2022/09/29 00:34:09;;;;;;;2.90;2.20;;;;;;;11.72;76.37;97983.84;4898807;29;20528;-78
2022/09/29 00:36:35;;;;;;;5.20;2.33;;;;;;;11.73;76.31;97981.06;4903850;29;20583;-78
2022/09/29 00:39:00;;;;;;;2.47;2.00;;;;;;;11.76;76.48;97973.84;4905328;29;20218;-78
2022/09/29 00:41:34;;;;;;;3.00;1.70;;;;;;;11.75;76.53;97978.28;4903021;29;20292;-78
2022/09/29 00:44:01;;;;;;;3.08;1.85;;;;;;;11.73;76.39;97983.69;4902831;29;20236;-78
2022/09/29 00:46:38;;;;;;;3.80;2.35;;;;;;;11.73;76.62;97977.59;4897857;29;20206;-78
2022/09/29 00:49:30;;;;;;;4.50;2.28;;;;;;;11.72;76.51;97978.59;4903376;29;20202;-78
2022/09/29 00:52:00;;;;;;;1.90;1.70;;;;;;;11.67;76.25;97973.75;4903568;29;20376;-78
2022/09/29 00:54:31;;;;;;;2.25;1.40;;;;;;;11.63;76.42;97979.44;4905210;29;20198;-78
2022/09/29 00:56:58;;;;;;;3.03;1.40;;;;;;;11.54;76.47;97969.78;4900355;29;20300;-78
2022/09/29 00:59:31;;;;;;;1.58;1.45;;;;;;;11.45;76.78;97968.81;4905427;29;20603;-78
2022/09/29 01:01:57;;;;;;;2.17;1.73;;;;;;;11.41;76.90;97976.19;4901009;29;20254;-78
2022/09/29 01:04:23;;;;;;;3.45;2.40;;;;;;;11.39;76.86;97966.78;4903838;29;20589;-78
2022/09/29 01:06:54;;;;;;;3.03;1.80;;;;;;;11.34;76.96;97967.22;4900982;29;20215;-78
2022/09/29 01:09:24;;;;;;;3.42;1.67;;;;;;;11.28;77.16;97968.59;4903471;29;20221;-78
2022/09/29 01:11:53;;;;;;;2.13;1.92;;;;;;;11.25;76.97;97970.69;4903262;29;20218;-78
2022/09/29 01:14:20;;;;;;;4.20;2.10;;;;;;;11.27;77.50;97972.22;4903411;29;20500;-78
2022/09/29 01:16:46;;;;;;;2.88;1.95;;;;;;;11.25;77.37;97974.16;4897462;29;20220;-78
2022/09/29 01:19:21;;;;;;;3.20;2.30;;;;;;;11.26;77.52;97969.72;4901978;29;20213;-78
2022/09/29 01:21:51;;;;;;;3.58;2.63;;;;;;;11.24;77.26;97969.03;4902933;29;20835;-78
2022/09/29 01:24:25;;;;;;;3.85;1.88;;;;;;;11.24;77.24;97969.88;4904064;29;20234;-78
2022/09/29 01:27:23;;;;;;;2.75;1.75;;;;;;;11.24;77.08;97964.63;4902941;29;20862;-78
2022/09/29 01:30:14;;;;;;;2.80;1.83;;;;;;;11.25;76.95;97976.78;4904439;29;20234;-78
2022/09/29 01:33:06;;;;;;;1.70;1.60;;;;;;;11.26;76.99;97961.81;4901364;29;20208;-78
2022/09/29 01:36:18;;;;;;;5.80;2.20;;;;;;;11.24;76.88;97948.03;4902508;29;20671;-78
2022/09/29 01:38:46;;;;;;;3.85;2.13;;;;;;;11.25;76.81;97952.28;4936377;29;20668;-78
2022/09/29 01:41:19;;;;;;;3.78;2.10;;;;;;;11.24;76.79;97945.41;4937175;29;20233;-78
2022/09/29 01:43:56;;;;;;;2.83;1.98;;;;;;;11.20;76.54;97941.38;4918035;29;20542;-78
2022/09/29 01:47:00;;;;;;;2.38;2.15;;;;;;;11.18;76.94;97944.16;4901377;29;20213;-78
2022/09/29 01:49:31;;;;;;;4.82;2.33;;;;;;;11.19;76.85;97942.34;4902226;29;20799;-78
2022/09/29 01:52:07;;;;;;;2.70;1.98;;;;;;;11.18;76.73;97940.69;4912087;29;20199;-78
2022/09/29 01:54:43;;;;;;;2.42;1.60;;;;;;;11.18;76.87;97940.69;4901625;29;20265;-78
2022/09/29 01:57:31;;;;;;;5.90;2.50;;;;;;;11.20;76.77;97949.25;4903423;29;20213;-78
2022/09/29 02:00:11;;;;;;;3.15;2.40;;;;;;;11.23;76.72;97947.19;4901521;29;20231;-78
2022/09/29 02:02:45;;;;;;;3.10;1.80;;;;;;;11.25;76.52;97937.34;4900378;29;20200;-78
2022/09/29 02:05:26;;;;;;;4.10;2.30;;;;;;;11.25;76.69;97936.53;4902633;29;20306;-78
2022/09/29 02:07:55;;;;;;;2.80;2.28;;;;;;;11.25;76.60;97932.09;4914843;29;20198;-78
2022/09/29 02:10:25;;;;;;;2.83;2.63;;;;;;;11.24;76.50;97938.34;4896900;29;20221;-78
2022/09/29 02:12:55;;;;;;;2.95;2.15;;;;;;;11.23;76.60;97936.69;4902566;29;20230;-78
2022/09/29 02:15:29;;;;;;;3.15;2.40;;;;;;;11.21;76.40;97941.25;4901550;29;20229;-78
2022/09/29 02:18:00;;;;;;;4.75;2.05;;;;;;;11.17;76.48;97942.50;4902769;29;20210;-78
2022/09/29 02:20:25;;;;;;;2.53;2.03;;;;;;;11.16;76.59;97934.75;4897240;29;20321;-78
2022/09/29 02:22:51;;;;;;;4.20;2.50;;;;;;;11.16;76.74;97934.75;4901342;29;20210;-78
2022/09/29 02:25:18;;;;;;;2.27;2.07;;;;;;;11.17;76.72;97931.97;4903926;29;20321;-78
2022/09/29 02:27:47;;;;;;;3.70;1.73;;;;;;;11.17;76.63;97926.72;4904269;29;20706;-78
2022/09/29 02:30:13;;;;;;;5.57;2.10;;;;;;;11.14;76.66;97921.75;4903708;29;20782;-78
2022/09/29 02:32:39;;;;;;;2.73;2.30;;;;;;;11.08;76.91;97932.84;4900671;29;20267;-78
2022/09/29 02:35:07;;;;;;;4.28;2.15;;;;;;;11.04;76.99;97926.19;4903152;29;20465;-78
2022/09/29 02:38:00;;;;;;;4.65;2.10;;;;;;;11.02;77.16;97928.16;4901351;29;20212;-78
2022/09/29 02:40:35;;;;;;;2.95;2.00;;;;;;;10.98;77.20;97924.97;4906439;29;20315;-78
2022/09/29 02:43:26;;;;;;;2.40;2.13;;;;;;;10.99;77.26;97928.41;4909533;29;20372;-78
2022/09/29 02:46:28;;;;;;;2.15;1.95;;;;;;;10.99;77.17;97933.66;4899523;29;20340;-78
2022/09/29 02:49:12;;;;;;;3.05;1.77;;;;;;;10.95;77.00;97937.56;4899449;29;20289;-78
2022/09/29 02:52:01;;;;;;;2.65;2.03;;;;;;;10.88;77.26;97931.22;4920101;23;20739;-75
2022/09/29 02:54:30;;;;;;;2.35;1.95;;;;;;;10.89;77.26;97930.25;4907660;29;20214;-77
2022/09/29 02:57:19;;;;;;;2.42;1.58;;;;;;;10.89;77.30;97923.19;4920052;29;20209;-75
2022/09/29 02:59:54;;;;;;;3.42;2.38;;;;;;;10.91;77.48;97918.66;4922091;29;20216;-75
2022/09/29 03:02:25;;;;;;;2.80;2.00;;;;;;;10.91;77.09;97930.91;4922189;29;20234;-77
2022/09/29 03:04:51;;;;;;;3.47;2.17;;;;;;;10.90;77.17;97929.28;4920785;29;20838;-79
2022/09/29 03:07:16;;;;;;;3.65;2.20;;;;;;;10.88;77.00;97929.41;4919584;29;20205;-79
2022/09/29 03:09:42;;;;;;;3.10;2.50;;;;;;;10.87;77.09;97930.38;4920782;29;20197;-77
2022/09/29 03:12:07;;;;;;;3.57;1.97;;;;;;;10.87;77.11;97926.94;4920281;29;20223;-77
2022/09/29 03:14:32;;;;;;;1.93;1.77;;;;;;;10.85;77.04;97933.16;4923003;29;20213;-77
2022/09/29 03:16:58;;;;;;;2.30;2.10;;;;;;;10.83;77.33;97931.66;4918828;29;20206;-77
2022/09/29 03:19:23;;;;;;;5.83;2.40;;;;;;;10.82;77.14;97932.59;4918880;29;20220;-78
2022/09/29 03:21:49;;;;;;;2.67;2.03;;;;;;;10.80;77.41;97938.00;4921179;29;20229;-77
2022/09/29 03:24:15;;;;;;;1.97;1.73;;;;;;;10.76;77.29;97939.25;4922871;29;20566;-77
2022/09/29 03:26:40;;;;;;;2.80;2.00;;;;;;;10.72;77.42;97929.16;4916970;29;20465;-77
2022/09/29 03:29:06;;;;;;;2.37;2.17;;;;;;;10.68;77.37;97931.22;4916282;29;20217;-79
2022/09/29 03:31:31;;;;;;;2.50;2.27;;;;;;;10.65;77.59;97931.53;4915216;29;20284;-79
2022/09/29 03:33:57;;;;;;;4.10;2.67;;;;;;;10.62;77.87;97931.81;4918809;29;21026;-77
2022/09/29 03:36:22;;;;;;;3.20;2.10;;;;;;;10.58;77.56;97941.72;4918890;29;20183;-76
2022/09/29 03:38:48;;;;;;;2.97;2.00;;;;;;;10.59;77.76;97932.09;4910734;29;20424;-74
2022/09/29 03:41:14;;;;;;;2.17;1.97;;;;;;;10.62;77.68;97932.63;4911425;29;20217;-75
2022/09/29 03:43:40;;;;;;;3.33;2.33;;;;;;;10.66;77.72;97933.16;4913052;29;20272;-76
2022/09/29 03:46:05;;;;;;;7.63;2.37;;;;;;;10.70;77.58;97925.84;4915201;29;20345;-77
2022/09/29 03:48:33;;;;;;;4.70;2.73;;;;;;;10.72;77.39;97924.75;4915357;29;20200;-75
2022/09/29 03:50:59;;;;;;;4.05;2.10;;;;;;;10.72;77.55;97927.38;4920015;29;20211;-77
2022/09/29 03:53:24;;;;;;;3.57;2.00;;;;;;;10.73;77.66;97921.16;4918854;29;20241;-77
2022/09/29 03:55:50;;;;;;;3.10;2.60;;;;;;;10.75;77.51;97923.66;4922046;29;20279;-78
2022/09/29 03:58:17;;;;;;;2.73;2.50;;;;;;;10.77;77.50;97930.38;4921219;29;20186;-77
2022/09/29 04:00:42;;;;;;;3.60;2.20;;;;;;;10.79;77.46;97931.09;4923839;29;20880;-78
2022/09/29 04:03:08;;;;;;;4.43;2.77;;;;;;;10.82;77.61;97930.78;4923147;29;20444;-77
2022/09/29 04:05:37;;;;;;;2.60;2.00;;;;;;;10.83;77.34;97927.22;4915711;29;20255;-78
2022/09/29 04:08:03;;;;;;;2.70;2.20;;;;;;;10.82;77.51;97922.91;4921622;29;20199;-79
2022/09/29 04:10:29;;;;;;;2.80;2.60;;;;;;;10.80;77.61;97927.50;4920986;29;20214;-78
2022/09/29 04:12:55;;;;;;;3.27;2.50;;;;;;;10.78;77.60;97932.06;4579247;28;10015152;-78
2022/09/29 04:15:20;;;;;;;3.00;2.70;;;;;;;10.76;77.94;97934.00;4922733;29;20200;-78
2022/09/29 04:17:46;;;;;;;2.73;2.23;;;;;;;10.76;77.97;97943.66;4920952;29;20325;-78
2022/09/29 04:20:11;;;;;;;3.70;2.00;;;;;;;10.75;78.02;97942.03;4924228;29;20737;-77
2022/09/29 04:22:36;;;;;;;2.23;2.03;;;;;;;10.73;77.77;97946.59;4923054;29;20219;-75
2022/09/29 04:25:02;;;;;;;2.10;1.90;;;;;;;10.72;77.84;97956.25;4922097;29;20211;-75
2022/09/29 04:27:27;;;;;;;4.57;2.50;;;;;;;10.73;77.95;97955.28;4929651;29;21183;-75
2022/09/29 04:29:56;;;;;;;4.30;2.30;;;;;;;10.73;77.86;97955.28;4921841;29;20195;-76
2022/09/29 04:32:21;;;;;;;3.08;2.78;;;;;;;10.75;77.83;97953.34;4920142;29;20221;-76
2022/09/29 04:34:47;;;;;;;2.80;2.27;;;;;;;10.78;77.80;97957.50;4921059;29;20195;-79
2022/09/29 04:37:12;;;;;;;3.10;1.80;;;;;;;10.77;77.68;97959.28;4923453;29;20992;-77
2022/09/29 04:39:38;;;;;;;2.33;2.13;;;;;;;10.76;77.73;97955.00;4923447;29;20203;-78
2022/09/29 04:42:04;;;;;;;2.10;1.90;;;;;;;10.74;77.97;97962.19;4921216;29;20226;-78
2022/09/29 04:44:29;;;;;;;3.13;2.40;;;;;;;10.76;77.72;97960.25;4924340;29;20230;-78
2022/09/29 04:46:54;;;;;;;4.37;2.37;;;;;;;10.78;77.94;97968.00;4921907;29;20246;-77
2022/09/29 04:49:20;;;;;;;3.33;2.20;;;;;;;10.79;77.71;97965.22;4920579;29;20195;-77
2022/09/29 04:51:46;;;;;;;2.30;2.10;;;;;;;10.77;77.67;97951.41;4923348;29;20299;-78
2022/09/29 04:54:11;;;;;;;4.00;2.10;;;;;;;10.76;77.70;97957.63;4922837;29;20777;-79
2022/09/29 04:56:37;;;;;;;2.33;2.10;;;;;;;10.74;77.56;97959.56;4920920;29;20223;-74
2022/09/29 04:59:03;;;;;;;3.70;3.03;;;;;;;10.72;77.87;97969.41;4922316;29;20195;-78
2022/09/29 05:01:29;;;;;;;3.37;2.63;;;;;;;10.73;77.88;97965.78;4922322;29;20215;-78
2022/09/29 05:03:55;;;;;;;3.15;2.40;;;;;;;10.74;77.92;97970.06;4918215;29;20187;-77
2022/09/29 05:06:21;;;;;;;2.03;1.83;;;;;;;10.76;77.78;97969.94;4922459;29;20187;-77
2022/09/29 05:08:46;;;;;;;3.27;2.17;;;;;;;10.78;77.70;97979.34;4915725;29;20210;-79
2022/09/29 05:11:12;;;;;;;2.57;2.37;;;;;;;10.78;77.73;97968.84;4918644;29;20203;-78
2022/09/29 05:13:37;;;;;;;2.73;2.53;;;;;;;10.77;77.64;97976.84;4917776;29;20700;-78
2022/09/29 05:16:03;;;;;;;3.37;2.33;;;;;;;10.77;77.75;97974.22;4920433;29;20193;-79
2022/09/29 05:18:29;;;;;;;2.40;2.20;;;;;;;10.74;77.88;97982.38;4922836;29;20234;-79
2022/09/29 05:20:55;;;;;;;3.10;1.90;;;;;;;10.71;77.86;97986.09;4920578;29;20475;-77
2022/09/29 05:23:21;;;;;;;2.40;2.20;;;;;;;10.69;78.06;97987.19;4934632;29;20688;-78
2022/09/29 05:25:47;;;;;;;2.60;2.10;;;;;;;10.68;77.98;97994.25;4920060;28;20213;-77
2022/09/29 05:28:16;;;;;;;3.00;1.80;;;;;;;10.68;78.07;97989.00;4917556;29;21075;-79
2022/09/29 05:30:42;;;;;;;3.17;2.03;;;;;;;10.67;77.91;97989.16;4920095;29;20213;-78
2022/09/29 05:33:08;;;;;;;2.83;2.35;;;;;;;10.68;77.93;97990.81;4923210;29;20448;-77
2022/09/29 05:35:33;;;;;;;3.00;2.10;;;;;;;10.66;78.09;97990.94;4920339;29;20538;-74
2022/09/29 05:37:59;;;;;;;2.40;2.10;;;;;;;10.66;78.05;97988.31;4918134;29;20928;-76
2022/09/29 05:40:25;;;;;;;2.03;1.77;;;;;;;10.66;78.21;97990.94;4922337;29;20273;-74
2022/09/29 05:42:51;;;;;;;1.90;1.60;;;;;;;10.66;78.01;97990.94;4921319;29;20708;-77
2022/09/29 05:45:16;;;;;;;2.70;1.97;;;;;;;10.63;78.22;97997.28;4922199;29;20208;-78
2022/09/29 05:47:43;;;;;;;3.53;3.10;;;;;;;10.63;78.16;97999.09;4920725;29;20487;-78
2022/09/29 05:50:10;;;;;;;2.53;2.15;;;;;;;10.63;78.17;97996.47;4922818;29;20280;-77
2022/09/29 05:52:36;;;;;;;7.97;2.08;;;;;;;10.62;78.22;97994.81;4918528;29;20275;-79
2022/09/29 05:55:02;;;;;;;3.05;2.78;;;;;;;10.59;78.40;98003.78;4920080;29;20191;-77
2022/09/29 05:57:28;;;;;;;3.22;1.77;;;;;;;10.57;78.35;98010.16;4921918;29;20905;-78
2022/09/29 05:59:54;;;;;;;2.63;1.97;;;;;;;10.56;78.39;98005.88;4922928;29;20195;-77
2022/09/29 06:02:21;;;;;;;3.17;1.80;;;;;;;10.57;78.45;98005.72;4922756;29;20219;-77
2022/09/29 06:04:46;;;;;;;3.90;2.53;;;;;;;10.60;78.32;98004.63;4923042;29;20234;-77
2022/09/29 06:07:12;;;;;;;3.40;2.23;;;;;;;10.59;78.20;98003.78;4918721;29;20610;-77
2022/09/29 06:09:37;;;;;;;2.37;2.17;;;;;;;10.60;78.25;97996.75;4920702;29;20211;-79
2022/09/29 06:12:03;;;;;;;2.80;2.60;;;;;;;10.62;78.37;98011.38;4919150;29;20199;-79
2022/09/29 06:14:28;;;;;;;4.23;2.63;;;;;;;10.65;78.54;98009.47;4922970;28;20630;-79
2022/09/29 06:16:54;;;;;;;3.63;2.33;;;;;;;10.68;78.07;98009.19;4919984;29;20183;-77
2022/09/29 06:19:20;;;;;;;2.90;2.70;;;;;;;10.72;78.18;98008.78;4921439;29;20210;-77
2022/09/29 06:21:45;;;;;;;2.83;2.20;;;;;;;10.78;78.12;98010.84;4918290;29;20213;-77
2022/09/29 06:24:11;;;;;;;2.80;2.37;;;;;;;10.81;77.84;98010.56;4922734;29;20777;-77
2022/09/29 06:26:36;;;;;;;3.73;3.20;;;;;;;10.85;77.94;98006.72;4924729;28;20203;-78
2022/09/29 06:29:03;;;;;;;7.97;3.37;;;;;;;10.92;77.77;98003.53;4919693;29;20274;-79
2022/09/29 06:31:30;;;;;;;2.97;2.67;;;;;;;10.98;77.73;98005.59;4923015;29;20247;-77
2022/09/29 06:33:58;;;;;;;2.45;2.25;;;;;;;11.00;77.69;98001.84;4923164;29;20195;-79
2022/09/29 06:39:23;;;;;;;2.95;2.65;;;;;;;11.07;77.57;97997.72;4914609;29;20668;-79
2022/09/29 06:41:55;;;;;;;3.07;2.23;;;;;;;11.09;77.36;97997.56;4913645;29;20219;-78
2022/09/29 06:44:25;;;;;;;3.92;2.40;;;;;;;11.13;77.07;97998.94;4914145;29;20222;-79
2022/09/29 06:46:51;;;;;;;4.43;2.67;;;;;;;11.16;77.40;97990.78;4914662;28;20235;-77
2022/09/29 06:49:18;;;;;;;4.10;3.22;;;;;;;11.21;77.19;97987.72;4918178;29;20193;-79
2022/09/29 06:51:44;;;;;;;6.13;4.10;;;;;;;11.30;77.20;97995.56;4914475;29;20231;-74
2022/09/29 06:54:11;;;;;;;3.30;3.00;;;;;;;11.41;76.93;97985.88;4915147;29;20260;-77
2022/09/29 06:56:36;;;;;;;3.17;2.88;;;;;;;11.47;76.56;97996.63;4917248;29;20440;-79
2022/09/29 06:59:02;;;;;;;7.27;3.57;;;;;;;11.48;76.56;97992.22;4915345;29;20181;-77
2022/09/29 07:01:28;;;;;;;3.73;3.40;;;;;;;11.44;76.53;97988.22;4917519;29;20692;-78
2022/09/29 07:03:53;;;;;;;4.20;3.57;;;;;;;11.37;76.55;97984.50;4917226;29;20220;-76
2022/09/29 07:06:19;;;;;;;3.40;3.07;;;;;;;11.37;76.61;97995.00;4917812;29;20204;-77
2022/09/29 07:08:44;;;;;;;3.73;3.43;;;;;;;11.39;76.69;97995.69;4917493;29;20187;-79
2022/09/29 07:11:10;;;;;;;3.53;3.23;;;;;;;11.42;76.73;97998.03;4918071;29;20595;-77
2022/09/29 07:13:36;;;;;;;4.10;3.40;;;;;;;11.46;76.64;97994.16;4917817;29;20203;-79
2022/09/29 07:16:11;;;;;;;6.07;3.75;;;;;;;11.52;76.63;98002.28;4918619;29;20193;-79
2022/09/29 07:18:40;;;;;;;3.03;2.50;;;;;;;11.58;76.30;98002.69;4917570;29;20207;-78
2022/09/29 07:21:11;;;;;;;5.15;2.75;;;;;;;11.64;76.08;98002.97;4917035;29;20247;-79
2022/09/29 07:23:37;;;;;;;5.05;2.50;;;;;;;11.67;75.99;98005.31;4917288;29;20256;-77
2022/09/29 07:26:05;;;;;;;4.18;2.78;;;;;;;11.70;75.93;98006.81;4918065;29;20223;-78
2022/09/29 07:28:30;;;;;;;2.53;1.98;;;;;;;11.73;75.74;98011.78;4916969;29;20424;-77
2022/09/29 07:31:00;;;;;;;3.40;2.77;;;;;;;11.74;75.54;98006.38;4916442;29;20281;-78
2022/09/29 07:33:26;;;;;;;3.78;2.75;;;;;;;11.76;75.54;98003.59;4917122;29;20243;-79
2022/09/29 07:35:52;;;;;;;2.43;2.23;;;;;;;11.79;75.51;98002.50;4918094;29;20220;-77
2022/09/29 07:38:18;;;;;;;3.17;2.60;;;;;;;11.82;75.39;98016.19;4916393;29;20221;-77
2022/09/29 07:40:43;;;;;;;1.87;1.70;;;;;;;11.86;75.34;98006.25;4916858;29;20195;-79
2022/09/29 07:43:09;;;;;;;2.83;2.40;;;;;;;11.88;75.22;98013.03;4916663;29;20786;-77
2022/09/29 07:45:34;;;;;;;3.30;2.90;;;;;;;11.95;75.22;98018.53;4916363;29;21113;-76
2022/09/29 07:48:00;;;;;;;3.70;2.40;;;;;;;12.04;75.09;98033.44;4917737;29;20199;-75
2022/09/29 07:50:26;;;;;;;3.20;2.13;;;;;;;12.13;74.48;98023.84;4916839;29;20206;-76
2022/09/29 07:52:51;;;;;;;3.50;2.00;;;;;;;12.20;74.36;98026.72;4916797;29;20897;-76
2022/09/29 07:55:17;;;;;;;2.63;2.37;;;;;;;12.27;74.09;98025.16;4917639;29;20717;-76
2022/09/29 07:57:46;;;;;;;5.68;2.80;;;;;;;12.33;73.77;98035.09;4916278;29;20341;-75
2022/09/29 08:00:11;;;;;;;4.07;2.45;;;;;;;12.39;73.81;98031.88;4916526;29;20666;-76
2022/09/29 08:02:37;;;;;;;2.10;1.90;;;;;;;12.45;73.64;98030.44;4916950;29;20215;-76
2022/09/29 08:05:03;;;;;;;3.87;2.60;;;;;;;12.54;73.26;98033.03;4917059;29;20240;-75
2022/09/29 08:07:28;;;;;;;2.07;1.87;;;;;;;12.58;73.17;98038.81;4917377;29;20254;-76
2022/09/29 08:09:54;;;;;;;2.10;1.90;;;;;;;12.61;72.66;98036.72;4916564;29;21031;-76
2022/09/29 08:12:19;;;;;;;3.07;1.77;;;;;;;12.66;72.22;98032.81;4916296;29;20219;-76
2022/09/29 08:14:45;;;;;;;2.90;1.97;;;;;;;12.67;71.96;98029.22;4917580;29;20860;-75
2022/09/29 08:17:10;;;;;;;2.27;1.70;;;;;;;12.68;72.17;98033.50;4916699;29;20195;-76
2022/09/29 08:19:36;;;;;;;2.97;2.30;;;;;;;12.70;71.98;98042.09;4915899;29;20195;-76
2022/09/29 08:22:01;;;;;;;4.50;2.33;;;;;;;12.72;71.96;98050.63;4917028;28;20903;-77
2022/09/29 08:24:28;;;;;;;2.90;2.27;;;;;;;12.71;71.78;98054.25;4916567;29;20222;-75
2022/09/29 08:26:56;;;;;;;2.95;2.75;;;;;;;12.73;71.92;98057.59;4917532;29;20229;-77
2022/09/29 08:29:22;;;;;;;2.30;2.10;;;;;;;12.74;71.86;98060.06;4916654;29;20255;-76
2022/09/29 08:31:47;;;;;;;2.43;1.97;;;;;;;12.76;71.75;98059.91;4915727;29;20823;-77
2022/09/29 08:34:14;;;;;;;3.13;2.63;;;;;;;12.82;71.85;98061.94;4917204;29;20192;-76
2022/09/29 08:36:39;;;;;;;2.63;2.42;;;;;;;12.89;71.56;98064.81;4916451;29;20265;-75
2022/09/29 08:39:05;;;;;;;2.80;1.73;;;;;;;12.92;70.86;98077.69;4915799;29;20273;-77
2022/09/29 08:41:51;;;;;;;2.57;2.00;;;;;;;12.98;70.91;98077.09;4917633;29;20719;-75
2022/09/29 08:44:42;;;;;;;1.98;1.88;;;;;;;13.04;70.43;98077.34;4920162;29;20249;-77
2022/09/29 08:47:14;;;;;;;3.08;1.67;;;;;;;13.10;70.09;98080.34;4934531;29;20238;-77
2022/09/29 08:49:46;;;;;;;2.00;1.80;;;;;;;13.12;70.02;98075.72;4918153;29;20202;-75
2022/09/29 08:52:20;;;;;;;2.72;1.70;;;;;;;13.16;69.49;98071.81;5132034;23;20645;-82
2022/09/29 08:54:47;;;;;;;5.85;2.10;;;;;;;13.19;69.31;98074.16;4912229;29;20699;-81
2022/09/29 08:57:16;;;;;;;4.15;1.80;;;;;;;13.20;68.96;98071.34;4922999;28;20207;-81
2022/09/29 08:59:42;;;;;;;4.40;2.70;;;;;;;13.26;68.92;98076.06;4926274;29;20192;-81
2022/09/29 09:02:35;;;;;;;3.93;2.60;;;;;;;13.35;68.48;98074.31;4926849;29;20221;-81
2022/09/29 09:05:19;;;;;;;7.45;2.50;;;;;;;13.41;68.52;98068.44;4925211;29;20625;-81
2022/09/29 09:08:21;;;;;;;4.15;2.05;;;;;;;13.45;68.43;98066.34;4926536;28;20208;-81
2022/09/29 09:11:11;;;;;;;7.85;2.85;;;;;;;13.47;67.76;98070.47;4908989;29;20202;-81
2022/09/29 09:13:39;;;;;;;2.92;1.50;;;;;;;13.44;67.88;98073.38;4925676;29;20672;-81
2022/09/29 09:16:35;;;;;;;1.23;1.10;;;;;;;13.43;67.63;98076.19;4918273;28;20793;-81
2022/09/29 09:19:28;;;;;;;3.35;2.00;;;;;;;13.49;67.66;98080.84;4923577;29;20289;-81
2022/09/29 09:22:17;;;;;;;2.50;1.60;;;;;;;13.52;66.69;98079.72;4925545;29;20224;-81
2022/09/29 09:24:45;;;;;;;2.65;1.50;;;;;;;13.50;67.23;98085.13;4923892;29;20226;-81
2022/09/29 09:27:17;;;;;;;1.60;1.48;;;;;;;13.50;67.00;98091.25;4926032;29;20218;-80
2022/09/29 09:29:43;;;;;;;2.03;1.83;;;;;;;13.53;67.11;98087.50;4925204;29;20199;-81
2022/09/29 09:32:14;;;;;;;2.67;2.38;;;;;;;13.56;67.09;98081.09;4931815;29;20221;-81
2022/09/29 09:34:50;;;;;;;2.70;1.90;;;;;;;13.61;66.81;98078.78;4925359;29;20225;-81
2022/09/29 09:37:30;;;;;;;1.80;1.70;;;;;;;13.74;66.63;98084.47;4925253;28;20204;-80
2022/09/29 09:40:02;;;;;;;2.53;1.50;;;;;;;13.87;66.25;98084.91;4923185;28;20312;-81
2022/09/29 09:42:36;;;;;;;2.55;2.22;;;;;;;13.99;65.60;98082.00;4923206;28;21006;-81
2022/09/29 09:45:24;;;;;;;1.60;1.50;;;;;;;14.09;65.51;98088.81;4932815;29;20215;-80
2022/09/29 09:48:07;;;;;;;3.00;1.60;;;;;;;14.19;65.47;98088.72;4937701;29;20227;-81
2022/09/29 09:50:38;;;;;;;2.35;1.40;;;;;;;14.27;65.40;98082.66;4927728;29;20283;-81
2022/09/29 09:53:14;;;;;;;2.20;2.00;;;;;;;14.37;65.23;98078.06;4924305;28;20877;-81
2022/09/29 09:55:40;;;;;;;2.30;1.50;;;;;;;14.44;64.83;98081.72;4923452;29;20202;-81
2022/09/29 09:58:24;;;;;;;3.43;1.93;;;;;;;14.46;64.62;98079.75;4924266;29;20425;-81
2022/09/29 10:01:05;;;;;;;2.15;1.95;;;;;;;14.48;64.55;98083.06;4924411;29;20194;-80
2022/09/29 10:03:32;;;;;;;5.75;2.63;;;;;;;14.52;64.44;98073.00;4923994;29;20183;-81
2022/09/29 10:05:58;;;;;;;2.30;2.10;;;;;;;14.56;64.00;98074.38;4923143;29;20215;-81
2022/09/29 10:08:25;;;;;;;4.53;2.33;;;;;;;14.53;63.84;98064.94;4921490;28;20272;-81
2022/09/29 10:10:51;;;;;;;2.83;2.28;;;;;;;14.54;63.98;98071.06;4923477;29;20202;-81
2022/09/29 10:13:17;;;;;;;3.05;2.20;;;;;;;14.57;63.87;98076.00;4922663;29;20215;-81
2022/09/29 10:16:00;;;;;;;3.10;2.00;;;;;;;14.66;63.69;98076.84;4921288;29;20225;-81
2022/09/29 10:18:38;;;;;;;2.85;2.35;;;;;;;14.75;63.57;98075.91;4921393;29;20232;-81
2022/09/29 10:21:19;;;;;;;2.97;2.05;;;;;;;14.85;63.38;98078.38;4920813;29;20286;-81
2022/09/29 10:23:53;;;;;;;3.55;1.77;;;;;;;14.91;63.44;98073.28;4921217;29;20232;-81
2022/09/29 10:26:42;;;;;;;1.65;1.38;;;;;;;14.98;63.44;98078.75;4925356;28;20314;-81
2022/09/29 10:29:36;;;;;;;2.00;1.58;;;;;;;15.03;62.22;98077.25;4923043;28;20215;-81
2022/09/29 10:32:07;;;;;;;3.25;1.30;;;;;;;15.01;61.40;98073.13;4921844;28;20211;-81
2022/09/29 10:34:39;;;;;;;2.13;1.50;;;;;;;14.98;61.69;98084.03;4923133;29;20643;-81
2022/09/29 10:37:25;;;;;;;2.65;1.80;;;;;;;15.00;61.83;98076.78;4923030;29;20192;-81
2022/09/29 10:40:03;;;;;;;2.92;2.63;;;;;;;15.03;62.02;98079.91;4922039;29;20917;-81
2022/09/29 10:42:35;;;;;;;2.70;1.80;;;;;;;15.04;61.93;98075.44;4922221;29;20245;-81
2022/09/29 10:45:21;;;;;;;3.05;2.10;;;;;;;15.07;62.45;98088.34;4923281;29;20266;-81
2022/09/29 10:48:13;;;;;;;5.10;2.10;;;;;;;15.05;62.35;98080.56;4922112;28;20199;-81
2022/09/29 10:50:50;;;;;;;5.63;3.67;;;;;;;15.06;62.53;98081.41;4922559;29;20226;-81
2022/09/29 10:53:22;;;;;;;3.33;2.05;;;;;;;15.09;62.91;98083.72;4922518;29;20234;-81
2022/09/29 10:55:50;;;;;;;2.75;2.35;;;;;;;15.10;62.88;98082.75;4922320;29;20275;-81
2022/09/29 10:58:30;;;;;;;2.53;1.85;;;;;;;15.14;62.67;98080.59;4922032;29;20198;-81
2022/09/29 11:01:16;;;;;;;2.60;2.00;;;;;;;15.16;62.36;98081.25;4923425;28;20222;-81
2022/09/29 11:03:50;;;;;;;4.00;2.25;;;;;;;15.19;62.65;98080.94;4922559;29;20257;-81
2022/09/29 11:06:16;;;;;;;2.17;1.85;;;;;;;15.25;62.06;98094.31;4921662;29;20274;-81
2022/09/29 11:09:06;;;;;;;4.07;1.80;;;;;;;15.21;62.34;98085.06;4922244;28;20634;-81
2022/09/29 11:11:38;;;;;;;2.15;1.83;;;;;;;15.27;62.28;98081.75;4921828;28;20221;-82
2022/09/29 11:14:04;;;;;;;1.92;1.30;;;;;;;15.35;62.11;98095.97;4906910;28;20319;-81
2022/09/29 11:16:29;;;;;;;1.20;1.10;;;;;;;15.42;61.32;98092.50;4923796;29;20192;-81
2022/09/29 11:19:04;;;;;;;1.40;1.30;;;;;;;15.45;61.31;98096.66;4921034;29;20440;-81
2022/09/29 11:21:42;;;;;;;2.63;1.55;;;;;;;15.56;61.00;98096.31;4921169;29;20234;-81
2022/09/29 11:24:26;;;;;;;3.65;1.25;;;;;;;15.69;60.54;98082.59;4921762;29;20202;-81
2022/09/29 11:26:57;;;;;;;2.00;1.90;;;;;;;15.80;59.94;98086.72;4922871;29;20188;-81
2022/09/29 11:29:25;;;;;;;1.80;1.50;;;;;;;15.90;59.70;98087.34;4921189;29;20239;-81
2022/09/29 11:32:21;;;;;;;2.22;1.52;;;;;;;15.97;59.22;98087.50;4921253;29;20215;-81
2022/09/29 11:35:07;;;;;;;3.58;2.53;;;;;;;16.05;59.27;98083.03;4920589;29;20218;-81
2022/09/29 11:38:07;;;;;;;1.73;1.63;;;;;;;16.15;58.94;98081.00;4921620;29;20205;-81
2022/09/29 11:40:45;;;;;;;2.20;1.60;;;;;;;16.18;59.10;98086.97;4920873;28;20196;-81
2022/09/29 11:43:28;;;;;;;2.55;1.85;;;;;;;16.25;59.13;98083.44;4922467;29;20228;-81
2022/09/29 11:46:31;;;;;;;1.63;1.13;;;;;;;16.24;58.52;98086.28;4920735;29;20231;-80
2022/09/29 11:49:15;;;;;;;1.60;1.40;;;;;;;16.12;58.49;98088.44;4922234;29;20230;-81
2022/09/29 11:52:05;;;;;;;2.47;1.02;;;;;;;16.04;58.65;98089.31;4920510;29;20290;-81
2022/09/29 11:54:38;;;;;;;1.50;1.40;;;;;;;16.11;58.51;98095.56;4920897;29;20473;-81